sensor_id;sensor_type;location;lat;lon;timestamp;temperature;humidity
24678;DHT22;12800;53.094;8.778;2023-10-13T00:01:26;15.90;92.50
24678;DHT22;12800;53.094;8.778;2023-10-13T00:03:52;16.00;92.60
24678;DHT22;12800;53.094;8.778;2023-10-13T00:06:18;16.00;92.60
24678;DHT22;12800;53.094;8.778;2023-10-13T00:08:45;16.00;92.60
24678;DHT22;12800;53.094;8.778;2023-10-13T00:11:15;16.00;92.70
24678;DHT22;12800;53.094;8.778;2023-10-13T00:13:41;16.10;92.70
24678;DHT22;12800;53.094;8.778;2023-10-13T00:16:20;16.10;92.70
24678;DHT22;12800;53.094;8.778;2023-10-13T00:18:53;16.10;92.80
24678;DHT22;12800;53.094;8.778;2023-10-13T00:21:24;16.10;93.10
24678;DHT22;12800;53.094;8.778;2023-10-13T00:24:00;16.10;92.80
24678;DHT22;12800;53.094;8.778;2023-10-13T00:26:28;16.10;92.80
24678;DHT22;12800;53.094;8.778;2023-10-13T00:28:55;16.20;92.90
24678;DHT22;12800;53.094;8.778;2023-10-13T00:31:28;16.10;92.90
24678;DHT22;12800;53.094;8.778;2023-10-13T00:34:02;16.20;93.00
24678;DHT22;12800;53.094;8.778;2023-10-13T00:36:45;16.20;93.00
24678;DHT22;12800;53.094;8.778;2023-10-13T00:39:34;16.20;93.10
24678;DHT22;12800;53.094;8.778;2023-10-13T00:42:02;16.20;93.10
24678;DHT22;12800;53.094;8.778;2023-10-13T00:44:33;16.30;93.20
24678;DHT22;12800;53.094;8.778;2023-10-13T00:47:09;16.30;93.30
24678;DHT22;12800;53.094;8.778;2023-10-13T00:49:38;16.30;93.30
24678;DHT22;12800;53.094;8.778;2023-10-13T00:52:09;16.30;93.40
24678;DHT22;12800;53.094;8.778;2023-10-13T00:54:37;16.40;93.40
24678;DHT22;12800;53.094;8.778;2023-10-13T00:57:04;16.40;93.50
24678;DHT22;12800;53.094;8.778;2023-10-13T00:59:33;16.40;93.50
24678;DHT22;12800;53.094;8.778;2023-10-13T01:02:02;16.50;93.60
24678;DHT22;12800;53.094;8.778;2023-10-13T01:04:48;16.50;93.60
24678;DHT22;12800;53.094;8.778;2023-10-13T01:07:14;16.50;93.60
24678;DHT22;12800;53.094;8.778;2023-10-13T01:09:42;16.50;93.60
24678;DHT22;12800;53.094;8.778;2023-10-13T01:12:08;16.50;93.70
24678;DHT22;12800;53.094;8.778;2023-10-13T01:14:34;16.50;93.70
24678;DHT22;12800;53.094;8.778;2023-10-13T01:17:01;16.60;93.80
24678;DHT22;12800;53.094;8.778;2023-10-13T01:19:27;16.60;93.80
24678;DHT22;12800;53.094;8.778;2023-10-13T01:21:53;16.60;93.80
24678;DHT22;12800;53.094;8.778;2023-10-13T01:24:27;16.60;93.80
24678;DHT22;12800;53.094;8.778;2023-10-13T01:26:56;16.70;93.90
24678;DHT22;12800;53.094;8.778;2023-10-13T01:29:22;16.70;93.90
24678;DHT22;12800;53.094;8.778;2023-10-13T01:31:51;16.70;93.90
24678;DHT22;12800;53.094;8.778;2023-10-13T01:34:18;16.70;93.90
24678;DHT22;12800;53.094;8.778;2023-10-13T01:36:50;16.70;94.00
24678;DHT22;12800;53.094;8.778;2023-10-13T01:39:25;16.70;94.00
24678;DHT22;12800;53.094;8.778;2023-10-13T01:41:57;16.70;94.10
24678;DHT22;12800;53.094;8.778;2023-10-13T01:44:26;16.70;94.10
24678;DHT22;12800;53.094;8.778;2023-10-13T01:46:59;16.70;94.10
24678;DHT22;12800;53.094;8.778;2023-10-13T01:49:25;16.70;94.20
24678;DHT22;12800;53.094;8.778;2023-10-13T01:51:51;16.80;94.20
24678;DHT22;12800;53.094;8.778;2023-10-13T01:54:17;16.80;94.20
24678;DHT22;12800;53.094;8.778;2023-10-13T01:56:43;16.80;94.30
24678;DHT22;12800;53.094;8.778;2023-10-13T01:59:10;16.80;94.30
24678;DHT22;12800;53.094;8.778;2023-10-13T02:01:36;16.80;94.30
24678;DHT22;12800;53.094;8.778;2023-10-13T02:04:02;16.80;94.40
24678;DHT22;12800;53.094;8.778;2023-10-13T02:06:33;16.80;94.40
24678;DHT22;12800;53.094;8.778;2023-10-13T02:09:08;16.90;94.50
24678;DHT22;12800;53.094;8.778;2023-10-13T02:11:45;16.90;94.50
24678;DHT22;12800;53.094;8.778;2023-10-13T02:14:12;16.90;94.50
24678;DHT22;12800;53.094;8.778;2023-10-13T02:16:38;16.90;94.50
24678;DHT22;12800;53.094;8.778;2023-10-13T02:19:04;16.90;94.60
24678;DHT22;12800;53.094;8.778;2023-10-13T02:21:33;16.90;94.60
24678;DHT22;12800;53.094;8.778;2023-10-13T02:24:06;16.90;94.60
24678;DHT22;12800;53.094;8.778;2023-10-13T02:26:38;16.90;94.60
24678;DHT22;12800;53.094;8.778;2023-10-13T02:29:05;16.90;94.70
24678;DHT22;12800;53.094;8.778;2023-10-13T02:31:38;17.00;94.70
24678;DHT22;12800;53.094;8.778;2023-10-13T02:34:04;17.00;94.70
24678;DHT22;12800;53.094;8.778;2023-10-13T02:36:40;17.00;94.80
24678;DHT22;12800;53.094;8.778;2023-10-13T02:39:16;17.00;94.80
24678;DHT22;12800;53.094;8.778;2023-10-13T02:41:42;17.00;94.80
24678;DHT22;12800;53.094;8.778;2023-10-13T02:44:13;17.00;94.80
24678;DHT22;12800;53.094;8.778;2023-10-13T02:46:53;17.00;94.80
24678;DHT22;12800;53.094;8.778;2023-10-13T02:49:25;17.10;94.90
24678;DHT22;12800;53.094;8.778;2023-10-13T02:51:52;17.10;94.90
24678;DHT22;12800;53.094;8.778;2023-10-13T02:54:18;17.10;95.30
24678;DHT22;12800;53.094;8.778;2023-10-13T02:56:45;17.10;95.00
24678;DHT22;12800;53.094;8.778;2023-10-13T02:59:25;17.10;95.00
24678;DHT22;12800;53.094;8.778;2023-10-13T03:02:01;17.20;95.00
24678;DHT22;12800;53.094;8.778;2023-10-13T03:04:52;17.20;95.00
24678;DHT22;12800;53.094;8.778;2023-10-13T03:07:27;17.20;95.00
24678;DHT22;12800;53.094;8.778;2023-10-13T03:09:58;17.20;95.00
24678;DHT22;12800;53.094;8.778;2023-10-13T03:12:26;17.20;95.00
24678;DHT22;12800;53.094;8.778;2023-10-13T03:14:53;17.20;95.30
24678;DHT22;12800;53.094;8.778;2023-10-13T03:17:28;17.20;95.00
24678;DHT22;12800;53.094;8.778;2023-10-13T03:20:00;17.20;95.00
24678;DHT22;12800;53.094;8.778;2023-10-13T03:22:26;17.20;94.90
24678;DHT22;12800;53.094;8.778;2023-10-13T03:24:59;17.20;94.90
24678;DHT22;12800;53.094;8.778;2023-10-13T03:27:31;17.20;94.90
24678;DHT22;12800;53.094;8.778;2023-10-13T03:30:20;17.20;95.00
24678;DHT22;12800;53.094;8.778;2023-10-13T03:32:55;17.30;95.00
24678;DHT22;12800;53.094;8.778;2023-10-13T03:35:22;17.30;95.10
24678;DHT22;12800;53.094;8.778;2023-10-13T03:37:51;17.30;95.10
24678;DHT22;12800;53.094;8.778;2023-10-13T03:40:17;17.30;95.10
24678;DHT22;12800;53.094;8.778;2023-10-13T03:42:59;17.30;95.10
24678;DHT22;12800;53.094;8.778;2023-10-13T03:48:04;17.30;95.50
24678;DHT22;12800;53.094;8.778;2023-10-13T03:50:38;17.30;95.10
24678;DHT22;12800;53.094;8.778;2023-10-13T03:53:35;17.30;95.10
24678;DHT22;12800;53.094;8.778;2023-10-13T03:56:05;17.30;95.10
24678;DHT22;12800;53.094;8.778;2023-10-13T03:58:36;17.30;95.10
24678;DHT22;12800;53.094;8.778;2023-10-13T04:01:04;17.40;95.20
24678;DHT22;12800;53.094;8.778;2023-10-13T04:03:31;17.30;95.20
24678;DHT22;12800;53.094;8.778;2023-10-13T04:06:06;17.30;95.20
24678;DHT22;12800;53.094;8.778;2023-10-13T04:08:32;17.40;95.20
24678;DHT22;12800;53.094;8.778;2023-10-13T04:11:13;17.40;95.20
24678;DHT22;12800;53.094;8.778;2023-10-13T04:13:57;17.30;95.10
24678;DHT22;12800;53.094;8.778;2023-10-13T04:16:41;17.30;95.10
24678;DHT22;12800;53.094;8.778;2023-10-13T04:19:17;17.40;95.20
24678;DHT22;12800;53.094;8.778;2023-10-13T04:21:50;17.30;95.10
24678;DHT22;12800;53.094;8.778;2023-10-13T04:24:23;17.40;95.20
24678;DHT22;12800;53.094;8.778;2023-10-13T04:27:05;17.40;95.20
24678;DHT22;12800;53.094;8.778;2023-10-13T04:29:37;17.40;95.20
24678;DHT22;12800;53.094;8.778;2023-10-13T04:32:17;17.40;95.20
24678;DHT22;12800;53.094;8.778;2023-10-13T04:34:59;17.40;95.20
24678;DHT22;12800;53.094;8.778;2023-10-13T04:37:36;17.40;95.30
24678;DHT22;12800;53.094;8.778;2023-10-13T04:40:19;17.40;95.30
24678;DHT22;12800;53.094;8.778;2023-10-13T04:42:50;17.40;95.30
24678;DHT22;12800;53.094;8.778;2023-10-13T04:45:19;17.40;95.30
24678;DHT22;12800;53.094;8.778;2023-10-13T04:47:58;17.40;95.30
24678;DHT22;12800;53.094;8.778;2023-10-13T04:50:40;17.40;95.30
24678;DHT22;12800;53.094;8.778;2023-10-13T04:53:12;17.40;95.30
24678;DHT22;12800;53.094;8.778;2023-10-13T04:55:57;17.40;95.30
24678;DHT22;12800;53.094;8.778;2023-10-13T04:58:43;17.40;95.30
24678;DHT22;12800;53.094;8.778;2023-10-13T05:01:35;17.40;95.30
24678;DHT22;12800;53.094;8.778;2023-10-13T05:04:19;17.40;95.30
24678;DHT22;12800;53.094;8.778;2023-10-13T05:07:03;17.40;95.40
24678;DHT22;12800;53.094;8.778;2023-10-13T05:09:48;17.40;95.40
24678;DHT22;12800;53.094;8.778;2023-10-13T05:12:32;17.40;95.40
24678;DHT22;12800;53.094;8.778;2023-10-13T05:15:16;17.40;95.40
24678;DHT22;12800;53.094;8.778;2023-10-13T05:18:00;17.40;95.40
24678;DHT22;12800;53.094;8.778;2023-10-13T05:20:44;17.40;95.40
24678;DHT22;12800;53.094;8.778;2023-10-13T05:23:28;17.40;95.40
24678;DHT22;12800;53.094;8.778;2023-10-13T05:26:12;17.40;95.40
24678;DHT22;12800;53.094;8.778;2023-10-13T05:28:56;17.40;95.40
24678;DHT22;12800;53.094;8.778;2023-10-13T05:31:40;17.40;95.50
24678;DHT22;12800;53.094;8.778;2023-10-13T05:34:24;17.50;95.50
24678;DHT22;12800;53.094;8.778;2023-10-13T05:37:08;17.40;95.40
24678;DHT22;12800;53.094;8.778;2023-10-13T05:39:52;17.50;95.50
24678;DHT22;12800;53.094;8.778;2023-10-13T05:42:36;17.50;95.90
24678;DHT22;12800;53.094;8.778;2023-10-13T05:45:20;17.50;95.50
24678;DHT22;12800;53.094;8.778;2023-10-13T05:48:02;17.50;95.50
24678;DHT22;12800;53.094;8.778;2023-10-13T05:50:37;17.50;95.50
24678;DHT22;12800;53.094;8.778;2023-10-13T05:53:21;17.50;95.50
24678;DHT22;12800;53.094;8.778;2023-10-13T05:56:05;17.50;95.50
24678;DHT22;12800;53.094;8.778;2023-10-13T05:58:49;17.50;95.50
24678;DHT22;12800;53.094;8.778;2023-10-13T06:01:33;17.50;95.50
24678;DHT22;12800;53.094;8.778;2023-10-13T06:04:17;17.50;95.60
24678;DHT22;12800;53.094;8.778;2023-10-13T06:07:01;17.50;95.60
24678;DHT22;12800;53.094;8.778;2023-10-13T06:09:45;17.50;95.60
24678;DHT22;12800;53.094;8.778;2023-10-13T06:12:29;17.50;95.60
24678;DHT22;12800;53.094;8.778;2023-10-13T06:15:13;17.60;95.60
24678;DHT22;12800;53.094;8.778;2023-10-13T06:17:57;17.50;95.60
24678;DHT22;12800;53.094;8.778;2023-10-13T06:20:41;17.60;95.70
24678;DHT22;12800;53.094;8.778;2023-10-13T06:23:25;17.60;95.70
24678;DHT22;12800;53.094;8.778;2023-10-13T06:26:09;17.60;95.70
24678;DHT22;12800;53.094;8.778;2023-10-13T06:28:53;17.60;95.70
24678;DHT22;12800;53.094;8.778;2023-10-13T06:31:19;17.60;95.70
24678;DHT22;12800;53.094;8.778;2023-10-13T06:33:48;17.50;95.70
24678;DHT22;12800;53.094;8.778;2023-10-13T06:36:14;17.60;95.70
24678;DHT22;12800;53.094;8.778;2023-10-13T06:38:39;17.50;95.70
24678;DHT22;12800;53.094;8.778;2023-10-13T06:41:07;17.60;95.70
24678;DHT22;12800;53.094;8.778;2023-10-13T06:43:37;17.60;95.80
24678;DHT22;12800;53.094;8.778;2023-10-13T06:46:11;17.60;95.80
24678;DHT22;12800;53.094;8.778;2023-10-13T06:48:40;17.60;95.80
24678;DHT22;12800;53.094;8.778;2023-10-13T06:51:07;17.60;95.80
24678;DHT22;12800;53.094;8.778;2023-10-13T06:53:52;17.60;95.80
24678;DHT22;12800;53.094;8.778;2023-10-13T06:56:22;17.60;95.80
24678;DHT22;12800;53.094;8.778;2023-10-13T06:58:52;17.60;95.80
24678;DHT22;12800;53.094;8.778;2023-10-13T07:01:27;17.60;95.80
24678;DHT22;12800;53.094;8.778;2023-10-13T07:03:53;17.60;95.70
24678;DHT22;12800;53.094;8.778;2023-10-13T07:06:22;17.60;95.80
24678;DHT22;12800;53.094;8.778;2023-10-13T07:08:48;17.60;95.80
24678;DHT22;12800;53.094;8.778;2023-10-13T07:11:27;17.60;95.80
24678;DHT22;12800;53.094;8.778;2023-10-13T07:14:02;17.60;95.80
24678;DHT22;12800;53.094;8.778;2023-10-13T07:17:00;17.60;95.80
24678;DHT22;12800;53.094;8.778;2023-10-13T07:19:29;17.60;95.80
24678;DHT22;12800;53.094;8.778;2023-10-13T07:21:56;17.60;95.70
24678;DHT22;12800;53.094;8.778;2023-10-13T07:24:28;17.60;95.70
24678;DHT22;12800;53.094;8.778;2023-10-13T07:27:00;17.60;95.80
24678;DHT22;12800;53.094;8.778;2023-10-13T07:29:30;17.60;95.80
24678;DHT22;12800;53.094;8.778;2023-10-13T07:32:02;17.70;95.90
24678;DHT22;12800;53.094;8.778;2023-10-13T07:34:29;17.70;95.90
24678;DHT22;12800;53.094;8.778;2023-10-13T07:36:58;17.70;95.90
24678;DHT22;12800;53.094;8.778;2023-10-13T07:39:30;17.70;95.80
24678;DHT22;12800;53.094;8.778;2023-10-13T07:42:00;17.70;95.80
24678;DHT22;12800;53.094;8.778;2023-10-13T07:44:40;17.60;95.70
24678;DHT22;12800;53.094;8.778;2023-10-13T07:47:11;17.70;95.80
24678;DHT22;12800;53.094;8.778;2023-10-13T07:49:40;17.60;95.70
24678;DHT22;12800;53.094;8.778;2023-10-13T07:52:10;17.60;95.60
24678;DHT22;12800;53.094;8.778;2023-10-13T07:54:46;17.60;95.60
24678;DHT22;12800;53.094;8.778;2023-10-13T07:57:16;17.60;95.60
24678;DHT22;12800;53.094;8.778;2023-10-13T07:59:43;17.60;95.60
24678;DHT22;12800;53.094;8.778;2023-10-13T08:02:29;17.60;95.60
24678;DHT22;12800;53.094;8.778;2023-10-13T08:05:14;17.60;95.70
24678;DHT22;12800;53.094;8.778;2023-10-13T08:07:50;17.60;95.70
24678;DHT22;12800;53.094;8.778;2023-10-13T08:10:17;17.70;95.80
24678;DHT22;12800;53.094;8.778;2023-10-13T08:12:46;17.70;95.80
24678;DHT22;12800;53.094;8.778;2023-10-13T08:15:11;17.70;95.80
24678;DHT22;12800;53.094;8.778;2023-10-13T08:17:47;17.70;95.80
24678;DHT22;12800;53.094;8.778;2023-10-13T08:20:13;17.70;95.90
24678;DHT22;12800;53.094;8.778;2023-10-13T08:22:42;17.80;96.00
24678;DHT22;12800;53.094;8.778;2023-10-13T08:25:12;17.90;96.00
24678;DHT22;12800;53.094;8.778;2023-10-13T08:27:50;17.90;96.10
24678;DHT22;12800;53.094;8.778;2023-10-13T08:30:35;18.00;96.00
24678;DHT22;12800;53.094;8.778;2023-10-13T08:33:16;18.10;96.00
24678;DHT22;12800;53.094;8.778;2023-10-13T08:35:43;18.20;95.90
24678;DHT22;12800;53.094;8.778;2023-10-13T08:38:20;18.20;95.80
24678;DHT22;12800;53.094;8.778;2023-10-13T08:40:57;18.20;95.80
24678;DHT22;12800;53.094;8.778;2023-10-13T08:43:41;18.30;95.80
24678;DHT22;12800;53.094;8.778;2023-10-13T08:46:16;18.30;95.70
24678;DHT22;12800;53.094;8.778;2023-10-13T08:48:59;18.40;95.60
24678;DHT22;12800;53.094;8.778;2023-10-13T08:51:54;18.50;95.50
24678;DHT22;12800;53.094;8.778;2023-10-13T08:54:40;18.50;95.30
24678;DHT22;12800;53.094;8.778;2023-10-13T08:57:15;18.50;95.20
24678;DHT22;12800;53.094;8.778;2023-10-13T08:59:58;18.60;95.10
24678;DHT22;12800;53.094;8.778;2023-10-13T09:02:44;18.60;95.00
24678;DHT22;12800;53.094;8.778;2023-10-13T09:05:25;18.60;94.90
24678;DHT22;12800;53.094;8.778;2023-10-13T09:08:28;18.60;94.90
24678;DHT22;12800;53.094;8.778;2023-10-13T09:11:12;18.60;94.80
24678;DHT22;12800;53.094;8.778;2023-10-13T09:13:39;18.60;94.80
24678;DHT22;12800;53.094;8.778;2023-10-13T09:16:14;18.70;94.80
24678;DHT22;12800;53.094;8.778;2023-10-13T09:19:02;18.70;94.80
24678;DHT22;12800;53.094;8.778;2023-10-13T09:21:40;18.70;94.70
24678;DHT22;12800;53.094;8.778;2023-10-13T09:24:08;18.70;94.70
24678;DHT22;12800;53.094;8.778;2023-10-13T09:26:55;18.70;94.70
24678;DHT22;12800;53.094;8.778;2023-10-13T09:29:22;18.70;94.70
24678;DHT22;12800;53.094;8.778;2023-10-13T09:31:59;18.70;94.70
24678;DHT22;12800;53.094;8.778;2023-10-13T09:34:26;18.70;94.70
24678;DHT22;12800;53.094;8.778;2023-10-13T09:36:58;18.70;94.80
24678;DHT22;12800;53.094;8.778;2023-10-13T09:39:27;18.80;94.80
24678;DHT22;12800;53.094;8.778;2023-10-13T09:41:57;18.80;94.80
24678;DHT22;12800;53.094;8.778;2023-10-13T09:44:26;18.80;94.80
24678;DHT22;12800;53.094;8.778;2023-10-13T09:47:00;18.90;94.80
24678;DHT22;12800;53.094;8.778;2023-10-13T09:49:36;18.90;94.90
24678;DHT22;12800;53.094;8.778;2023-10-13T09:52:18;19.00;94.90
24678;DHT22;12800;53.094;8.778;2023-10-13T09:55:11;19.00;94.80
24678;DHT22;12800;53.094;8.778;2023-10-13T09:57:43;19.10;94.80
24678;DHT22;12800;53.094;8.778;2023-10-13T10:00:19;19.20;94.70
24678;DHT22;12800;53.094;8.778;2023-10-13T10:03:06;19.20;94.70
24678;DHT22;12800;53.094;8.778;2023-10-13T10:06:02;19.30;94.70
24678;DHT22;12800;53.094;8.778;2023-10-13T10:08:35;19.40;94.70
24678;DHT22;12800;53.094;8.778;2023-10-13T10:13:52;19.50;94.60
24678;DHT22;12800;53.094;8.778;2023-10-13T10:19:01;19.60;94.40
24678;DHT22;12800;53.094;8.778;2023-10-13T10:21:36;19.70;94.40
24678;DHT22;12800;53.094;8.778;2023-10-13T10:24:22;19.80;94.30
24678;DHT22;12800;53.094;8.778;2023-10-13T10:26:57;19.90;94.20
24678;DHT22;12800;53.094;8.778;2023-10-13T10:29:22;20.00;94.10
24678;DHT22;12800;53.094;8.778;2023-10-13T10:31:48;20.00;94.00
24678;DHT22;12800;53.094;8.778;2023-10-13T10:34:15;20.10;93.90
24678;DHT22;12800;53.094;8.778;2023-10-13T10:36:47;20.10;93.90
24678;DHT22;12800;53.094;8.778;2023-10-13T10:39:13;20.20;93.80
24678;DHT22;12800;53.094;8.778;2023-10-13T10:41:40;20.20;93.70
24678;DHT22;12800;53.094;8.778;2023-10-13T10:44:14;20.20;93.70
24678;DHT22;12800;53.094;8.778;2023-10-13T10:46:46;20.30;93.60
24678;DHT22;12800;53.094;8.778;2023-10-13T10:49:26;20.40;93.60
24678;DHT22;12800;53.094;8.778;2023-10-13T10:52:01;20.40;93.40
24678;DHT22;12800;53.094;8.778;2023-10-13T10:54:27;20.40;93.30
24678;DHT22;12800;53.094;8.778;2023-10-13T10:57:00;20.40;93.10
24678;DHT22;12800;53.094;8.778;2023-10-13T10:59:44;20.40;93.10
24678;DHT22;12800;53.094;8.778;2023-10-13T11:02:10;20.40;93.00
24678;DHT22;12800;53.094;8.778;2023-10-13T11:04:41;20.40;92.90
24678;DHT22;12800;53.094;8.778;2023-10-13T11:07:24;20.40;92.90
24678;DHT22;12800;53.094;8.778;2023-10-13T11:09:50;20.40;92.90
24678;DHT22;12800;53.094;8.778;2023-10-13T11:12:19;20.40;92.70
24678;DHT22;12800;53.094;8.778;2023-10-13T11:15:04;20.50;92.70
24678;DHT22;12800;53.094;8.778;2023-10-13T11:17:51;20.50;92.70
24678;DHT22;12800;53.094;8.778;2023-10-13T11:20:20;20.60;92.60
24678;DHT22;12800;53.094;8.778;2023-10-13T11:23:13;20.60;92.40
24678;DHT22;12800;53.094;8.778;2023-10-13T11:25:39;20.70;92.20
24678;DHT22;12800;53.094;8.778;2023-10-13T11:28:15;20.70;92.00
24678;DHT22;12800;53.094;8.778;2023-10-13T11:30:53;20.80;91.80
24678;DHT22;12800;53.094;8.778;2023-10-13T11:33:24;20.80;91.70
24678;DHT22;12800;53.094;8.778;2023-10-13T11:35:52;20.90;91.60
24678;DHT22;12800;53.094;8.778;2023-10-13T11:38:21;20.90;91.50
24678;DHT22;12800;53.094;8.778;2023-10-13T11:43:54;21.00;91.20
24678;DHT22;12800;53.094;8.778;2023-10-13T11:46:37;21.00;91.10
24678;DHT22;12800;53.094;8.778;2023-10-13T11:49:10;21.10;91.00
24678;DHT22;12800;53.094;8.778;2023-10-13T11:51:42;21.10;90.80
24678;DHT22;12800;53.094;8.778;2023-10-13T11:54:17;21.10;90.70
24678;DHT22;12800;53.094;8.778;2023-10-13T11:56:44;21.10;90.50
24678;DHT22;12800;53.094;8.778;2023-10-13T11:59:10;21.20;90.50
24678;DHT22;12800;53.094;8.778;2023-10-13T12:01:50;21.20;90.40
24678;DHT22;12800;53.094;8.778;2023-10-13T12:04:37;21.20;90.30
24678;DHT22;12800;53.094;8.778;2023-10-13T12:07:09;21.30;90.30
24678;DHT22;12800;53.094;8.778;2023-10-13T12:09:45;21.40;90.20
24678;DHT22;12800;53.094;8.778;2023-10-13T12:12:23;21.50;89.90
24678;DHT22;12800;53.094;8.778;2023-10-13T12:14:49;21.50;89.40
24678;DHT22;12800;53.094;8.778;2023-10-13T12:17:21;21.60;89.30
24678;DHT22;12800;53.094;8.778;2023-10-13T12:20:00;21.60;88.60
24678;DHT22;12800;53.094;8.778;2023-10-13T12:22:30;21.70;88.30
24678;DHT22;12800;53.094;8.778;2023-10-13T12:25:07;21.70;88.20
24678;DHT22;12800;53.094;8.778;2023-10-13T12:27:52;21.70;88.00
24678;DHT22;12800;53.094;8.778;2023-10-13T12:30:23;21.70;87.60
24678;DHT22;12800;53.094;8.778;2023-10-13T12:33:02;21.70;87.30
24678;DHT22;12800;53.094;8.778;2023-10-13T12:35:40;21.80;86.90
24678;DHT22;12800;53.094;8.778;2023-10-13T12:38:24;21.80;86.80
24678;DHT22;12800;53.094;8.778;2023-10-13T12:41:05;21.80;86.50
24678;DHT22;12800;53.094;8.778;2023-10-13T12:43:50;21.80;86.50
24678;DHT22;12800;53.094;8.778;2023-10-13T12:46:34;21.90;86.10
24678;DHT22;12800;53.094;8.778;2023-10-13T12:49:18;21.90;85.80
24678;DHT22;12800;53.094;8.778;2023-10-13T12:52:02;21.90;85.70
24678;DHT22;12800;53.094;8.778;2023-10-13T12:54:27;22.00;85.50
24678;DHT22;12800;53.094;8.778;2023-10-13T12:57:01;22.00;85.00
24678;DHT22;12800;53.094;8.778;2023-10-13T12:59:26;22.00;84.90
24678;DHT22;12800;53.094;8.778;2023-10-13T13:01:53;22.00;84.60
24678;DHT22;12800;53.094;8.778;2023-10-13T13:04:19;22.00;84.40
24678;DHT22;12800;53.094;8.778;2023-10-13T13:06:49;22.00;84.20
24678;DHT22;12800;53.094;8.778;2023-10-13T13:09:15;21.90;83.90
24678;DHT22;12800;53.094;8.778;2023-10-13T13:11:41;21.90;83.90
24678;DHT22;12800;53.094;8.778;2023-10-13T13:14:07;21.80;83.70
24678;DHT22;12800;53.094;8.778;2023-10-13T13:16:34;21.80;83.50
24678;DHT22;12800;53.094;8.778;2023-10-13T13:19:00;21.80;83.60
24678;DHT22;12800;53.094;8.778;2023-10-13T13:21:36;21.70;83.50
24678;DHT22;12800;53.094;8.778;2023-10-13T13:24:02;21.70;83.50
24678;DHT22;12800;53.094;8.778;2023-10-13T13:26:29;21.70;83.40
24678;DHT22;12800;53.094;8.778;2023-10-13T13:28:56;21.80;83.20
24678;DHT22;12800;53.094;8.778;2023-10-13T13:31:23;21.80;83.20
24678;DHT22;12800;53.094;8.778;2023-10-13T13:33:57;21.70;83.10
24678;DHT22;12800;53.094;8.778;2023-10-13T13:36:23;21.70;83.00
24678;DHT22;12800;53.094;8.778;2023-10-13T13:38:49;21.70;83.20
24678;DHT22;12800;53.094;8.778;2023-10-13T13:41:16;21.80;83.00
24678;DHT22;12800;53.094;8.778;2023-10-13T13:43:43;21.90;82.80
24678;DHT22;12800;53.094;8.778;2023-10-13T13:46:19;22.00;82.30
24678;DHT22;12800;53.094;8.778;2023-10-13T13:48:45;22.10;81.90
24678;DHT22;12800;53.094;8.778;2023-10-13T13:51:13;22.10;81.60
24678;DHT22;12800;53.094;8.778;2023-10-13T13:53:45;22.20;81.20
24678;DHT22;12800;53.094;8.778;2023-10-13T13:56:13;22.20;80.70
24678;DHT22;12800;53.094;8.778;2023-10-13T13:58:44;22.30;80.20
24678;DHT22;12800;53.094;8.778;2023-10-13T14:01:10;22.30;79.80
24678;DHT22;12800;53.094;8.778;2023-10-13T14:03:45;22.40;79.50
24678;DHT22;12800;53.094;8.778;2023-10-13T14:06:12;22.40;80.00
24678;DHT22;12800;53.094;8.778;2023-10-13T14:08:55;22.40;78.60
24678;DHT22;12800;53.094;8.778;2023-10-13T14:11:25;22.40;78.30
24678;DHT22;12800;53.094;8.778;2023-10-13T14:14:13;22.40;78.00
24678;DHT22;12800;53.094;8.778;2023-10-13T14:16:54;22.50;77.90
24678;DHT22;12800;53.094;8.778;2023-10-13T14:19:28;22.50;77.40
24678;DHT22;12800;53.094;8.778;2023-10-13T14:21:54;22.40;77.10
24678;DHT22;12800;53.094;8.778;2023-10-13T14:24:20;22.40;77.00
24678;DHT22;12800;53.094;8.778;2023-10-13T14:26:56;22.40;77.00
24678;DHT22;12800;53.094;8.778;2023-10-13T14:29:23;22.40;76.80
24678;DHT22;12800;53.094;8.778;2023-10-13T14:31:52;22.40;77.20
24678;DHT22;12800;53.094;8.778;2023-10-13T14:34:18;22.40;76.30
24678;DHT22;12800;53.094;8.778;2023-10-13T14:36:47;22.40;76.30
24678;DHT22;12800;53.094;8.778;2023-10-13T14:39:14;22.40;76.30
24678;DHT22;12800;53.094;8.778;2023-10-13T14:41:40;22.40;76.10
24678;DHT22;12800;53.094;8.778;2023-10-13T14:44:06;22.40;76.10
24678;DHT22;12800;53.094;8.778;2023-10-13T14:46:33;22.40;76.00
24678;DHT22;12800;53.094;8.778;2023-10-13T14:49:04;22.30;76.00
24678;DHT22;12800;53.094;8.778;2023-10-13T14:51:29;22.30;75.90
24678;DHT22;12800;53.094;8.778;2023-10-13T14:53:55;22.30;75.90
24678;DHT22;12800;53.094;8.778;2023-10-13T14:56:25;22.30;75.90
24678;DHT22;12800;53.094;8.778;2023-10-13T14:58:52;22.30;75.90
24678;DHT22;12800;53.094;8.778;2023-10-13T15:01:20;22.30;75.80
24678;DHT22;12800;53.094;8.778;2023-10-13T15:03:50;22.20;75.80
24678;DHT22;12800;53.094;8.778;2023-10-13T15:06:17;22.20;76.00
24678;DHT22;12800;53.094;8.778;2023-10-13T15:08:44;22.20;76.10
24678;DHT22;12800;53.094;8.778;2023-10-13T15:11:12;22.10;76.20
24678;DHT22;12800;53.094;8.778;2023-10-13T15:13:41;22.10;76.20
24678;DHT22;12800;53.094;8.778;2023-10-13T15:16:24;22.10;76.30
24678;DHT22;12800;53.094;8.778;2023-10-13T15:18:51;22.10;76.30
24678;DHT22;12800;53.094;8.778;2023-10-13T15:21:27;22.00;76.50
24678;DHT22;12800;53.094;8.778;2023-10-13T15:24:09;22.00;77.00
24678;DHT22;12800;53.094;8.778;2023-10-13T15:26:46;22.00;77.30
24678;DHT22;12800;53.094;8.778;2023-10-13T15:29:19;21.90;78.30
24678;DHT22;12800;53.094;8.778;2023-10-13T15:31:51;21.80;77.70
24678;DHT22;12800;53.094;8.778;2023-10-13T15:34:26;21.80;78.00
24678;DHT22;12800;53.094;8.778;2023-10-13T15:36:52;21.70;78.30
24678;DHT22;12800;53.094;8.778;2023-10-13T15:39:20;21.70;78.80
24678;DHT22;12800;53.094;8.778;2023-10-13T15:41:57;21.60;79.10
24678;DHT22;12800;53.094;8.778;2023-10-13T15:44:27;21.50;79.60
24678;DHT22;12800;53.094;8.778;2023-10-13T15:46:58;21.40;80.20
24678;DHT22;12800;53.094;8.778;2023-10-13T15:49:25;21.30;80.40
24678;DHT22;12800;53.094;8.778;2023-10-13T15:51:53;21.30;80.70
24678;DHT22;12800;53.094;8.778;2023-10-13T15:54:21;21.20;80.90
24678;DHT22;12800;53.094;8.778;2023-10-13T15:56:49;21.10;81.10
24678;DHT22;12800;53.094;8.778;2023-10-13T15:59:15;21.00;81.50
24678;DHT22;12800;53.094;8.778;2023-10-13T16:01:41;21.00;81.70
24678;DHT22;12800;53.094;8.778;2023-10-13T16:04:07;20.90;81.90
24678;DHT22;12800;53.094;8.778;2023-10-13T16:06:45;20.90;82.00
24678;DHT22;12800;53.094;8.778;2023-10-13T16:09:15;20.80;82.30
24678;DHT22;12800;53.094;8.778;2023-10-13T16:11:42;20.80;82.60
24678;DHT22;12800;53.094;8.778;2023-10-13T16:14:08;20.70;82.80
24678;DHT22;12800;53.094;8.778;2023-10-13T16:16:41;20.70;83.00
24678;DHT22;12800;53.094;8.778;2023-10-13T16:19:10;20.60;83.20
24678;DHT22;12800;53.094;8.778;2023-10-13T16:21:35;20.70;83.60